2021/10/22 10:00 YSSY 221000Z 04005KT 9999 FEW015 19/16 Q1016
2021/10/22 10:00 YMML 221000Z 25008KT 9999 OVC008 15/13 Q1013
2021/10/22 10:00 YSCB 221000Z AUTO 00000KT 9999 // NCD 15/10 Q1016
2021/10/22 10:00 YPAD 221000Z 24007KT CAVOK 16/14 Q1016
2021/10/22 10:00 YPPH 221000Z 23010KT CAVOK 19/07 Q1023
2021/10/22 10:00 YBBN 221000Z 03014KT 9999 FEW019 BKN036 23/20 Q1016
2021/10/22 10:00 YMHB 221000Z 21003KT 9999 FEW020 SCT048 BKN110 15/13 Q1013
2021/10/22 10:00 NZAA 221000Z AUTO 07016KT 050V110 9999 BKN044/// 15/10 Q1030 NOSIG
2021/10/22 10:00 NZCH 221000Z AUTO 06013KT 9999 NCD 10/07 Q1033 NOSIG

Powered by MinhViet JSC.